Time;durP1;ratioP1;P1;durP2;ratioP2;P2;SDS_P1;SDS_P2;PMS_P1;PMS_P2;Temp;Humidity;BMP_temperature;BMP_pressure;BME280_temperature;BME280_humidity;BME280_pressure;Samples;Min_cycle;Max_cycle;Signal;HPM_P1;HPM_P2
2023/12/26 00:02:19;;;;;;;2.75;0.90;;;9.60;99.90;;;;;;5004487;28;20033;-60
2023/12/26 00:04:45;;;;;;;1.45;0.70;;;9.50;99.90;;;;;;5001964;28;20080;-60
2023/12/26 00:07:11;;;;;;;0.68;0.35;;;9.60;99.90;;;;;;4999351;28;20145;-61
2023/12/26 00:09:40;;;;;;;1.50;0.55;;;9.70;99.90;;;;;;4997930;28;20026;-60
2023/12/26 00:12:06;;;;;;;1.23;0.40;;;9.70;99.90;;;;;;4998535;28;20045;-61
2023/12/26 00:14:32;;;;;;;1.42;0.88;;;9.80;99.90;;;;;;5005581;28;20133;-60
2023/12/26 00:16:58;;;;;;;1.27;0.70;;;9.80;99.90;;;;;;5003081;28;20145;-61
2023/12/26 00:19:24;;;;;;;0.77;0.60;;;9.80;99.90;;;;;;5003055;28;20861;-60
2023/12/26 00:21:50;;;;;;;2.97;0.65;;;9.70;99.90;;;;;;4998457;28;20379;-60
2023/12/26 00:24:16;;;;;;;0.70;0.70;;;9.70;99.90;;;;;;5006862;28;20030;-60
2023/12/26 00:26:42;;;;;;;2.90;0.60;;;9.70;99.90;;;;;;5006169;28;20437;-60
2023/12/26 00:29:08;;;;;;;2.10;0.85;;;9.60;99.90;;;;;;5002181;28;20454;-61
2023/12/26 00:31:34;;;;;;;4.57;0.70;;;9.70;99.90;;;;;;4999261;28;20038;-60
2023/12/26 00:33:59;;;;;;;1.33;1.15;;;9.80;99.90;;;;;;5001414;28;20044;-61
2023/12/26 00:36:25;;;;;;;0.98;0.52;;;9.80;99.90;;;;;;5006768;28;20510;-60
2023/12/26 00:38:51;;;;;;;3.22;0.73;;;9.80;99.90;;;;;;5001668;28;20026;-60
2023/12/26 00:41:17;;;;;;;1.50;0.82;;;9.80;99.90;;;;;;5000730;28;20064;-61
2023/12/26 00:43:43;;;;;;;3.13;1.15;;;9.90;99.90;;;;;;4998633;28;20029;-61
2023/12/26 00:46:09;;;;;;;0.98;0.57;;;10.00;99.90;;;;;;5004631;28;20128;-61
2023/12/26 00:48:36;;;;;;;3.08;0.93;;;10.00;99.90;;;;;;5005226;28;20032;-61
2023/12/26 00:51:03;;;;;;;1.50;1.00;;;10.10;99.90;;;;;;5006453;28;20029;-61
2023/12/26 00:53:29;;;;;;;1.77;0.75;;;10.20;99.90;;;;;;5001336;28;20030;-60
2023/12/26 00:55:56;;;;;;;3.20;0.85;;;10.10;99.90;;;;;;5001023;28;20029;-61
2023/12/26 00:58:22;;;;;;;1.63;0.95;;;10.00;99.90;;;;;;5005811;28;20030;-61
2023/12/26 01:00:48;;;;;;;1.30;0.73;;;10.10;99.90;;;;;;5004331;28;20038;-60
2023/12/26 01:03:15;;;;;;;0.90;0.75;;;10.10;99.90;;;;;;5002103;28;20085;-60
2023/12/26 01:05:41;;;;;;;1.20;0.80;;;10.30;99.90;;;;;;5005291;28;20779;-60
2023/12/26 01:08:09;;;;;;;0.70;0.65;;;10.10;99.90;;;;;;5006232;28;20026;-60
2023/12/26 01:10:35;;;;;;;5.03;1.05;;;10.10;99.90;;;;;;5004789;28;20029;-60
2023/12/26 01:13:45;;;;;;;2.42;0.70;;;10.20;99.90;;;;;;4998311;28;20180;-60
2023/12/26 01:16:11;;;;;;;1.02;0.80;;;10.10;99.90;;;;;;5005093;28;20034;-60
2023/12/26 01:18:37;;;;;;;1.55;0.55;;;10.00;99.90;;;;;;5006081;28;20029;-60
2023/12/26 01:21:03;;;;;;;0.90;0.63;;;10.00;99.90;;;;;;5003653;28;20125;-60
2023/12/26 01:23:29;;;;;;;0.65;0.60;;;10.10;99.90;;;;;;5003082;28;20018;-60
2023/12/26 01:25:55;;;;;;;2.58;0.40;;;10.10;99.90;;;;;;4996313;28;20379;-60
2023/12/26 01:28:20;;;;;;;0.82;0.50;;;10.20;99.90;;;;;;4999719;28;20084;-60
2023/12/26 01:30:46;;;;;;;0.43;0.30;;;10.40;99.90;;;;;;5005447;28;20113;-60
2023/12/26 01:33:12;;;;;;;3.15;0.40;;;10.60;99.90;;;;;;5002597;28;20064;-60
2023/12/26 01:35:38;;;;;;;0.30;0.30;;;10.70;99.90;;;;;;5004691;28;20562;-60
2023/12/26 01:38:04;;;;;;;0.60;0.30;;;10.80;99.90;;;;;;4998641;28;20027;-60
2023/12/26 01:40:30;;;;;;;0.38;0.38;;;10.90;99.90;;;;;;5001174;28;20104;-60
2023/12/26 01:42:56;;;;;;;0.57;0.40;;;11.00;99.90;;;;;;5003316;28;20631;-60
2023/12/26 01:45:22;;;;;;;5.38;0.50;;;11.10;99.90;;;;;;5005553;28;20049;-60
2023/12/26 01:47:50;;;;;;;0.30;0.30;;;11.10;99.90;;;;;;4997501;28;20772;-61
2023/12/26 01:50:16;;;;;;;0.20;0.20;;;11.20;99.90;;;;;;4997907;28;20064;-60
2023/12/26 01:52:43;;;;;;;0.20;0.20;;;11.20;99.90;;;;;;5005377;28;20080;-60
2023/12/26 01:55:11;;;;;;;0.50;0.30;;;11.20;99.90;;;;;;5002545;28;20034;-60
2023/12/26 01:57:39;;;;;;;2.15;0.40;;;11.30;99.90;;;;;;5001148;28;20026;-60
2023/12/26 02:00:07;;;;;;;0.60;0.30;;;11.30;99.90;;;;;;4996011;28;20669;-60
2023/12/26 02:02:38;;;;;;;0.50;0.30;;;11.40;99.90;;;;;;5002404;28;20038;-60
2023/12/26 02:05:05;;;;;;;0.40;0.20;;;11.40;99.90;;;;;;5002821;28;20026;-60
2023/12/26 02:07:30;;;;;;;0.47;0.20;;;11.40;99.90;;;;;;5002366;28;20061;-60
2023/12/26 02:09:57;;;;;;;1.33;0.30;;;11.40;99.90;;;;;;5005055;28;20409;-60
2023/12/26 02:12:24;;;;;;;0.30;0.30;;;11.40;99.90;;;;;;4998641;28;20040;-60
2023/12/26 02:14:50;;;;;;;0.32;0.30;;;11.40;99.90;;;;;;5002402;28;20042;-60
2023/12/26 02:17:23;;;;;;;0.32;0.30;;;11.50;99.90;;;;;;5002685;28;20038;-60
2023/12/26 02:19:49;;;;;;;1.50;0.20;;;11.40;99.90;;;;;;4999506;28;20375;-60
2023/12/26 02:22:15;;;;;;;0.40;0.40;;;11.40;99.90;;;;;;5004311;28;20053;-60
2023/12/26 02:24:43;;;;;;;0.35;0.20;;;11.40;99.90;;;;;;5004858;28;20038;-60
2023/12/26 02:27:16;;;;;;;2.40;0.20;;;11.40;99.90;;;;;;5000782;28;20121;-60
2023/12/26 02:29:48;;;;;;;0.15;0.15;;;11.40;99.90;;;;;;4999998;28;20118;-61
2023/12/26 02:32:18;;;;;;;0.35;0.35;;;11.50;99.90;;;;;;4997061;28;20030;-60
2023/12/26 02:34:47;;;;;;;0.65;0.25;;;11.50;99.90;;;;;;5002139;28;20041;-60
2023/12/26 02:37:13;;;;;;;0.25;0.25;;;11.50;99.90;;;;;;5004276;28;20038;-60
2023/12/26 02:39:40;;;;;;;0.20;0.20;;;11.50;99.90;;;;;;5004525;28;20022;-60
2023/12/26 02:42:06;;;;;;;0.28;0.20;;;11.50;99.90;;;;;;4997934;28;20035;-60
2023/12/26 02:44:34;;;;;;;0.30;0.30;;;11.50;99.90;;;;;;5002687;28;20075;-60
2023/12/26 02:46:59;;;;;;;2.75;0.20;;;11.40;99.90;;;;;;5002406;28;20850;-60
2023/12/26 02:49:25;;;;;;;0.15;0.15;;;11.30;99.90;;;;;;5004711;28;20038;-60
2023/12/26 02:51:51;;;;;;;0.90;0.20;;;11.30;99.90;;;;;;4997472;28;20030;-60
2023/12/26 02:54:17;;;;;;;0.22;0.22;;;11.40;99.90;;;;;;5000098;28;20124;-60
2023/12/26 02:56:42;;;;;;;0.13;0.13;;;11.30;99.90;;;;;;4996825;28;20076;-60
2023/12/26 02:59:08;;;;;;;0.30;0.30;;;11.30;99.90;;;;;;5004455;28;20556;-60
2023/12/26 03:01:34;;;;;;;0.57;0.30;;;11.30;99.90;;;;;;5001780;28;20033;-60
2023/12/26 03:04:00;;;;;;;0.50;0.20;;;11.30;99.90;;;;;;4997097;28;20034;-60
2023/12/26 03:06:25;;;;;;;0.15;0.10;;;11.30;99.90;;;;;;4997758;28;20087;-60
2023/12/26 03:08:51;;;;;;;0.03;0.03;;;11.40;99.90;;;;;;4999599;28;20709;-60
2023/12/26 03:11:17;;;;;;;0.73;0.20;;;11.40;99.90;;;;;;5002098;28;20026;-60
2023/12/26 03:13:43;;;;;;;0.30;0.20;;;11.40;99.90;;;;;;4998141;28;20131;-60
2023/12/26 03:16:09;;;;;;;0.17;0.17;;;11.20;99.90;;;;;;4997576;28;20050;-60
2023/12/26 03:18:35;;;;;;;0.55;0.17;;;11.20;99.90;;;;;;5004413;28;20477;-60
2023/12/26 03:21:02;;;;;;;0.25;0.25;;;11.20;99.90;;;;;;5002978;28;20394;-60
2023/12/26 03:23:27;;;;;;;0.20;0.20;;;11.20;99.90;;;;;;5000097;28;20037;-60
2023/12/26 03:25:54;;;;;;;0.65;0.30;;;11.10;99.90;;;;;;5003716;28;20390;-60
2023/12/26 03:28:20;;;;;;;0.50;0.40;;;10.90;99.90;;;;;;5001513;28;20022;-60
2023/12/26 03:30:45;;;;;;;0.20;0.20;;;10.90;99.90;;;;;;5000366;28;20525;-60
2023/12/26 03:33:11;;;;;;;0.38;0.30;;;11.00;99.90;;;;;;5001891;28;20106;-60
2023/12/26 03:35:37;;;;;;;0.85;0.22;;;11.10;99.90;;;;;;5002768;28;20118;-60
2023/12/26 03:38:03;;;;;;;0.50;0.28;;;11.20;99.90;;;;;;4998586;28;20030;-60
2023/12/26 03:40:29;;;;;;;3.00;0.40;;;11.40;99.90;;;;;;4999757;28;20033;-60
2023/12/26 03:42:56;;;;;;;0.32;0.25;;;11.40;99.90;;;;;;5002546;28;20030;-60
2023/12/26 03:45:26;;;;;;;0.10;0.10;;;11.40;99.90;;;;;;5003826;28;20038;-60
2023/12/26 03:47:53;;;;;;;0.00;0.00;;;11.50;99.90;;;;;;5005082;28;20105;-60
2023/12/26 03:50:20;;;;;;;0.10;0.10;;;11.50;99.90;;;;;;5007506;28;20129;-60
2023/12/26 03:52:46;;;;;;;0.40;0.00;;;11.40;99.90;;;;;;5007132;28;20117;-60
2023/12/26 03:55:13;;;;;;;0.22;0.10;;;11.40;99.90;;;;;;5004821;28;20129;-60
2023/12/26 03:57:39;;;;;;;0.65;0.20;;;11.40;99.90;;;;;;5004332;28;20025;-60
2023/12/26 04:00:06;;;;;;;0.05;0.05;;;11.40;99.90;;;;;;4998811;28;20878;-60
2023/12/26 04:02:40;;;;;;;0.30;0.10;;;11.50;99.90;;;;;;5004756;28;20533;-60
2023/12/26 04:05:08;;;;;;;0.00;0.00;;;11.40;99.90;;;;;;5003972;28;20761;-60
2023/12/26 04:07:35;;;;;;;0.98;0.10;;;11.40;99.90;;;;;;5003110;28;20048;-61
2023/12/26 04:10:01;;;;;;;0.30;0.20;;;11.40;99.90;;;;;;4998622;28;20038;-60
2023/12/26 04:12:29;;;;;;;1.23;0.20;;;11.40;99.90;;;;;;4999542;28;20026;-60
2023/12/26 04:14:55;;;;;;;0.10;0.10;;;11.40;99.90;;;;;;5004938;28;20498;-60
2023/12/26 04:17:21;;;;;;;0.00;0.00;;;11.40;99.90;;;;;;5007275;28;20030;-60
2023/12/26 04:19:48;;;;;;;1.65;0.08;;;11.50;99.90;;;;;;5000689;28;20029;-60
2023/12/26 04:22:14;;;;;;;0.15;0.13;;;11.40;99.90;;;;;;4999573;28;20038;-60
2023/12/26 04:24:41;;;;;;;0.00;0.00;;;11.30;99.90;;;;;;5003269;28;20498;-60
2023/12/26 04:27:07;;;;;;;0.10;0.03;;;11.30;99.90;;;;;;5003614;28;20030;-60
2023/12/26 04:29:33;;;;;;;0.00;0.00;;;11.30;99.90;;;;;;5004730;28;20810;-60
2023/12/26 04:31:59;;;;;;;0.10;0.08;;;11.30;99.90;;;;;;4997579;28;20034;-60
2023/12/26 04:34:25;;;;;;;0.00;0.00;;;11.30;99.90;;;;;;5000745;28;20044;-60
2023/12/26 04:36:51;;;;;;;0.08;0.08;;;11.40;99.90;;;;;;5007501;28;20026;-60
2023/12/26 04:39:17;;;;;;;0.00;0.00;;;11.40;99.90;;;;;;5003372;28;20121;-60
2023/12/26 04:41:47;;;;;;;2.05;0.15;;;11.30;99.90;;;;;;5000640;28;20771;-60
2023/12/26 04:44:12;;;;;;;0.60;0.10;;;11.30;99.90;;;;;;4998588;28;20522;-60
2023/12/26 04:46:38;;;;;;;0.10;0.10;;;11.30;99.90;;;;;;5004084;28;20026;-60
2023/12/26 04:49:04;;;;;;;0.25;0.25;;;11.30;99.90;;;;;;5006248;28;20030;-60
2023/12/26 04:51:30;;;;;;;0.30;0.10;;;11.30;99.90;;;;;;5006397;28;20030;-60
2023/12/26 04:53:57;;;;;;;0.15;0.05;;;11.30;99.90;;;;;;4997587;28;20050;-60
2023/12/26 04:56:23;;;;;;;0.00;0.00;;;11.30;99.90;;;;;;5006394;28;20516;-60
2023/12/26 04:58:51;;;;;;;0.10;0.10;;;11.20;99.90;;;;;;5004084;28;20032;-60
2023/12/26 05:01:18;;;;;;;0.10;0.10;;;11.30;99.90;;;;;;5005894;28;20025;-60
2023/12/26 05:03:45;;;;;;;0.35;0.00;;;11.20;99.90;;;;;;5004487;28;20121;-60
2023/12/26 05:06:12;;;;;;;0.00;0.00;;;11.20;99.90;;;;;;5006647;28;20145;-60
2023/12/26 05:08:39;;;;;;;0.00;0.00;;;11.20;99.90;;;;;;5002202;28;20030;-60
2023/12/26 05:11:07;;;;;;;1.95;0.10;;;11.20;99.90;;;;;;5002689;28;20027;-60
2023/12/26 05:13:33;;;;;;;0.43;0.10;;;11.20;99.90;;;;;;5002923;28;20449;-60
2023/12/26 05:16:06;;;;;;;0.40;0.20;;;11.20;99.90;;;;;;5005817;28;20077;-60
2023/12/26 05:18:32;;;;;;;0.52;0.10;;;11.20;99.90;;;;;;5000069;28;20055;-60
2023/12/26 05:21:01;;;;;;;0.00;0.00;;;11.10;99.90;;;;;;5004406;28;20494;-60
2023/12/26 05:23:27;;;;;;;3.60;0.13;;;11.00;99.90;;;;;;5006150;28;20501;-60
2023/12/26 05:25:53;;;;;;;0.05;0.05;;;10.90;99.90;;;;;;4998620;28;20030;-60
2023/12/26 05:28:19;;;;;;;0.63;0.20;;;10.70;99.90;;;;;;5005906;28;20037;-60
2023/12/26 05:30:45;;;;;;;0.25;0.20;;;10.80;99.90;;;;;;5001295;28;20026;-60
2023/12/26 05:33:11;;;;;;;0.65;0.10;;;10.80;99.90;;;;;;5003494;28;20394;-60
2023/12/26 05:35:38;;;;;;;0.88;0.00;;;10.70;99.90;;;;;;5004431;28;20022;-60
2023/12/26 05:38:03;;;;;;;0.10;0.10;;;10.70;99.90;;;;;;5000721;28;20526;-60
2023/12/26 05:40:30;;;;;;;0.10;0.10;;;10.50;99.90;;;;;;4998009;28;20022;-60
2023/12/26 05:42:56;;;;;;;0.08;0.08;;;10.60;99.90;;;;;;5003952;28;20513;-60
2023/12/26 05:45:23;;;;;;;1.75;0.05;;;10.70;99.90;;;;;;5005715;28;20029;-60
2023/12/26 05:47:49;;;;;;;0.20;0.03;;;10.80;99.90;;;;;;5000820;28;20585;-60
2023/12/26 05:50:17;;;;;;;1.25;0.00;;;10.90;99.90;;;;;;5001373;28;20069;-60
2023/12/26 05:52:43;;;;;;;1.13;0.80;;;11.00;99.90;;;;;;5000960;28;20450;-60
2023/12/26 05:55:09;;;;;;;0.52;0.32;;;11.10;99.90;;;;;;5001585;28;20026;-60
2023/12/26 05:57:35;;;;;;;4.28;0.20;;;11.10;99.90;;;;;;5002359;28;20023;-60
2023/12/26 06:00:01;;;;;;;0.10;0.10;;;11.10;99.90;;;;;;5000542;28;20053;-60
2023/12/26 06:02:28;;;;;;;1.20;1.10;;;11.10;99.90;;;;;;4997845;28;20022;-60
2023/12/26 06:04:54;;;;;;;1.83;1.50;;;11.20;99.90;;;;;;5002793;28;20494;-60
2023/12/26 06:07:19;;;;;;;3.05;2.28;;;11.20;99.90;;;;;;5001761;28;20034;-60
2023/12/26 06:09:46;;;;;;;0.30;0.30;;;11.20;99.90;;;;;;5003986;28;20042;-60
2023/12/26 06:12:12;;;;;;;0.20;0.20;;;11.20;99.90;;;;;;4996615;28;20038;-60
2023/12/26 06:14:39;;;;;;;1.42;1.33;;;11.10;99.90;;;;;;5000626;28;20129;-60
2023/12/26 06:17:04;;;;;;;1.50;1.40;;;11.10;99.90;;;;;;5001032;28;20034;-60
2023/12/26 06:19:30;;;;;;;0.30;0.30;;;11.10;99.90;;;;;;5001536;28;20030;-61
2023/12/26 06:21:57;;;;;;;1.67;0.88;;;11.00;99.90;;;;;;5001185;28;20088;-60
2023/12/26 06:24:22;;;;;;;2.33;0.68;;;11.10;99.90;;;;;;5004493;28;20533;-60
2023/12/26 06:26:49;;;;;;;0.77;0.50;;;11.10;99.90;;;;;;5002987;28;20037;-60
2023/12/26 06:29:14;;;;;;;1.92;0.85;;;11.00;99.90;;;;;;5002129;28;20033;-60
2023/12/26 06:31:40;;;;;;;1.05;0.70;;;10.90;99.90;;;;;;5002733;28;20026;-60
2023/12/26 06:34:06;;;;;;;1.15;0.20;;;11.00;99.90;;;;;;4997417;28;20129;-60
2023/12/26 06:36:32;;;;;;;2.63;0.40;;;10.90;99.90;;;;;;5000931;28;20033;-60
2023/12/26 06:39:00;;;;;;;1.10;0.50;;;10.90;99.90;;;;;;5003686;28;20121;-60
2023/12/26 06:41:30;;;;;;;2.45;0.80;;;10.90;99.90;;;;;;5004161;28;20025;-60
2023/12/26 06:43:56;;;;;;;0.88;0.40;;;10.90;99.90;;;;;;5004648;28;20040;-60
2023/12/26 06:46:23;;;;;;;0.50;0.32;;;10.90;99.90;;;;;;5013432;28;20057;-60
2023/12/26 06:48:49;;;;;;;4.05;1.50;;;10.90;99.90;;;;;;5000164;28;20030;-60
2023/12/26 06:51:16;;;;;;;1.30;0.70;;;10.90;99.90;;;;;;4999989;28;20036;-60
2023/12/26 06:53:43;;;;;;;0.40;0.38;;;10.90;99.90;;;;;;4999285;28;20371;-60
2023/12/26 06:56:08;;;;;;;4.72;3.10;;;10.90;99.90;;;;;;5002835;28;20026;-60
2023/12/26 06:58:34;;;;;;;2.13;1.70;;;10.90;99.90;;;;;;5001539;28;20022;-60
2023/12/26 07:01:01;;;;;;;2.50;1.45;;;10.70;99.90;;;;;;5002070;28;20027;-60
2023/12/26 07:03:27;;;;;;;0.20;0.15;;;10.70;99.90;;;;;;5001035;28;20044;-60
2023/12/26 07:05:52;;;;;;;0.50;0.43;;;10.80;99.90;;;;;;4995246;28;20034;-60
2023/12/26 07:08:19;;;;;;;0.20;0.20;;;10.70;99.90;;;;;;4997906;28;20038;-60
2023/12/26 07:10:46;;;;;;;0.90;0.28;;;10.60;99.90;;;;;;5004114;28;20601;-61
2023/12/26 07:13:12;;;;;;;0.40;0.40;;;10.60;99.90;;;;;;5000903;28;20117;-60
2023/12/26 07:15:38;;;;;;;0.13;0.10;;;10.60;99.90;;;;;;4999473;28;20106;-60
2023/12/26 07:18:04;;;;;;;0.00;0.00;;;10.60;99.90;;;;;;4996048;28;20030;-60
2023/12/26 07:20:29;;;;;;;0.13;0.10;;;10.50;99.90;;;;;;5000776;28;20018;-60
2023/12/26 07:22:55;;;;;;;0.43;0.10;;;10.50;99.90;;;;;;5000988;28;20030;-60
2023/12/26 07:25:21;;;;;;;0.10;0.10;;;10.50;99.90;;;;;;5000930;28;20022;-60
2023/12/26 07:27:47;;;;;;;0.03;0.03;;;10.40;99.90;;;;;;4997961;28;20479;-60
2023/12/26 07:30:12;;;;;;;0.10;0.10;;;10.40;99.90;;;;;;4997119;28;20136;-60
2023/12/26 07:32:38;;;;;;;0.15;0.15;;;10.40;99.90;;;;;;5003583;28;20018;-60
2023/12/26 07:35:04;;;;;;;0.20;0.10;;;10.30;99.90;;;;;;4999940;28;20546;-60
2023/12/26 07:37:32;;;;;;;0.40;0.20;;;10.30;99.90;;;;;;5002656;28;20030;-60
2023/12/26 07:39:58;;;;;;;0.35;0.28;;;10.40;99.90;;;;;;4995646;28;20031;-60
2023/12/26 07:42:24;;;;;;;0.10;0.10;;;10.60;99.90;;;;;;5000417;28;20037;-60
2023/12/26 07:44:49;;;;;;;1.35;0.40;;;10.60;99.90;;;;;;5002164;28;20040;-60
2023/12/26 07:47:15;;;;;;;0.60;0.20;;;10.70;99.90;;;;;;5000928;28;20077;-60
2023/12/26 07:49:41;;;;;;;0.55;0.20;;;10.70;99.90;;;;;;4998036;28;20115;-60
2023/12/26 07:52:07;;;;;;;0.10;0.10;;;10.60;99.90;;;;;;4995501;28;20049;-60
2023/12/26 07:54:33;;;;;;;0.57;0.10;;;10.60;99.90;;;;;;4997821;28;20034;-60
2023/12/26 07:56:58;;;;;;;0.32;0.20;;;10.50;99.90;;;;;;4999939;28;20065;-60
2023/12/26 07:59:24;;;;;;;2.72;0.20;;;10.50;99.90;;;;;;4999916;28;20029;-60
2023/12/26 08:01:50;;;;;;;0.20;0.10;;;10.50;99.90;;;;;;4994772;28;20082;-60
2023/12/26 08:04:16;;;;;;;1.20;0.90;;;10.50;99.90;;;;;;5001841;28;20037;-60
2023/12/26 08:06:41;;;;;;;1.52;0.40;;;10.50;99.90;;;;;;5003024;28;20033;-60
2023/12/26 08:09:08;;;;;;;4.43;0.30;;;10.40;99.90;;;;;;4998917;28;20034;-60
2023/12/26 08:11:35;;;;;;;2.33;0.20;;;10.40;99.90;;;;;;4998232;28;20025;-60
2023/12/26 08:14:01;;;;;;;1.55;0.15;;;10.40;99.90;;;;;;4998063;28;20049;-60
2023/12/26 08:16:27;;;;;;;1.10;0.50;;;10.40;99.90;;;;;;5003182;28;20042;-60
2023/12/26 08:18:54;;;;;;;3.22;0.40;;;10.30;99.90;;;;;;4999947;28;20136;-62
2023/12/26 08:21:19;;;;;;;0.85;0.20;;;10.30;99.90;;;;;;4984956;28;20570;-60
2023/12/26 08:23:46;;;;;;;1.17;0.20;;;10.30;99.90;;;;;;4995145;28;20080;-62
2023/12/26 08:26:11;;;;;;;2.65;0.95;;;10.30;99.90;;;;;;5002066;28;20555;-60
2023/12/26 08:28:37;;;;;;;2.90;0.60;;;10.30;99.90;;;;;;5001920;28;20038;-60
2023/12/26 08:31:03;;;;;;;0.20;0.20;;;10.30;99.90;;;;;;4998229;28;20023;-61
2023/12/26 08:33:32;;;;;;;2.08;0.30;;;10.30;99.90;;;;;;4998355;28;20442;-61
2023/12/26 08:35:58;;;;;;;1.38;0.80;;;10.30;99.90;;;;;;5000850;28;20030;-61
2023/12/26 08:38:23;;;;;;;2.00;0.65;;;10.30;99.90;;;;;;5007583;28;20048;-61
2023/12/26 08:40:50;;;;;;;1.92;0.57;;;10.30;99.90;;;;;;5003709;28;20085;-61
2023/12/26 08:43:16;;;;;;;2.92;1.45;;;10.30;99.90;;;;;;5001700;28;20030;-61
2023/12/26 08:45:42;;;;;;;1.73;0.75;;;10.30;99.90;;;;;;4999428;28;20434;-61
2023/12/26 08:48:09;;;;;;;2.25;0.90;;;10.30;99.90;;;;;;5005278;28;20025;-61
2023/12/26 08:50:35;;;;;;;3.85;2.08;;;10.40;99.90;;;;;;5004992;28;20475;-62
2023/12/26 08:53:01;;;;;;;2.38;0.80;;;10.50;99.90;;;;;;5003525;28;20458;-62
2023/12/26 08:55:27;;;;;;;1.75;0.90;;;10.40;99.90;;;;;;5001755;28;20026;-62
2023/12/26 08:57:53;;;;;;;1.85;0.60;;;10.50;99.90;;;;;;4999771;28;20379;-61
2023/12/26 09:00:19;;;;;;;2.30;0.73;;;10.60;99.90;;;;;;5005641;28;20032;-61
2023/12/26 09:02:45;;;;;;;6.75;1.70;;;10.60;99.90;;;;;;5003786;28;20033;-61
2023/12/26 09:05:12;;;;;;;1.48;0.70;;;10.60;99.90;;;;;;5000832;28;20034;-61
2023/12/26 09:07:38;;;;;;;3.25;0.85;;;10.70;99.90;;;;;;4999131;28;20092;-61
2023/12/26 09:10:05;;;;;;;5.80;1.80;;;10.80;99.90;;;;;;5004131;28;20037;-61
2023/12/26 09:12:31;;;;;;;3.50;1.30;;;10.90;99.90;;;;;;5004470;28;20049;-61
2023/12/26 09:14:57;;;;;;;5.80;1.90;;;10.90;99.90;;;;;;4999757;28;20022;-61
2023/12/26 09:17:23;;;;;;;3.75;0.80;;;11.10;99.90;;;;;;4997056;28;20215;-62
2023/12/26 09:19:49;;;;;;;3.38;0.90;;;11.50;99.90;;;;;;4999604;28;20030;-61
2023/12/26 09:22:15;;;;;;;2.38;0.50;;;11.90;99.90;;;;;;5011832;28;20132;-62
2023/12/26 09:24:44;;;;;;;1.33;0.90;;;12.20;99.90;;;;;;5001599;28;20065;-61
2023/12/26 09:27:10;;;;;;;3.90;1.00;;;12.80;99.90;;;;;;5000097;28;20198;-61
2023/12/26 09:29:36;;;;;;;1.55;0.30;;;13.60;99.90;;;;;;4999583;28;20121;-61
2023/12/26 09:32:02;;;;;;;1.17;0.43;;;14.60;99.90;;;;;;4999789;28;20034;-61
2023/12/26 09:34:28;;;;;;;1.88;0.68;;;15.50;99.90;;;;;;5003813;28;20041;-61
2023/12/26 09:36:53;;;;;;;1.50;0.63;;;16.20;99.90;;;;;;5002823;28;20069;-61
2023/12/26 09:39:19;;;;;;;3.67;0.98;;;16.70;98.40;;;;;;5000545;28;20076;-62
2023/12/26 09:41:52;;;;;;;2.05;0.60;;;17.20;96.40;;;;;;5000148;28;20022;-61
2023/12/26 09:44:19;;;;;;;3.15;0.50;;;17.40;94.00;;;;;;5005150;28;20161;-61
2023/12/26 09:46:46;;;;;;;5.50;0.70;;;17.60;92.70;;;;;;5002657;28;20030;-61
2023/12/26 09:49:12;;;;;;;2.30;0.80;;;17.50;92.70;;;;;;4999865;28;20046;-61
2023/12/26 09:51:43;;;;;;;2.50;0.88;;;17.30;91.70;;;;;;4998415;28;20170;-62
2023/12/26 09:54:10;;;;;;;4.88;0.70;;;17.20;92.00;;;;;;5004224;28;20526;-62
2023/12/26 09:56:40;;;;;;;2.60;0.80;;;17.20;91.30;;;;;;5004511;28;20056;-61
2023/12/26 09:59:07;;;;;;;3.38;0.77;;;17.00;91.10;;;;;;5001650;28;20027;-61
2023/12/26 10:01:33;;;;;;;1.90;0.70;;;16.90;91.30;;;;;;4999278;28;20430;-63
2023/12/26 10:04:00;;;;;;;0.57;0.40;;;16.80;91.10;;;;;;4998793;28;20033;-62
2023/12/26 10:06:25;;;;;;;3.17;0.60;;;16.30;92.10;;;;;;5004857;28;20034;-62
2023/12/26 10:08:51;;;;;;;3.03;0.82;;;15.80;92.10;;;;;;4999479;28;20034;-62
2023/12/26 10:11:17;;;;;;;3.63;0.65;;;15.60;91.80;;;;;;4999809;28;20137;-62
2023/12/26 10:13:44;;;;;;;4.88;0.80;;;15.80;92.30;;;;;;4996812;28;20061;-63
2023/12/26 10:16:10;;;;;;;5.00;1.10;;;16.50;91.10;;;;;;5003566;28;20089;-62
2023/12/26 10:18:36;;;;;;;4.63;1.20;;;17.00;89.40;;;;;;5003152;28;20664;-62
2023/12/26 10:21:02;;;;;;;2.15;0.50;;;18.30;84.60;;;;;;4999266;28;20030;-62
2023/12/26 10:23:28;;;;;;;4.68;0.80;;;19.40;79.70;;;;;;4999690;28;20450;-63
2023/12/26 10:25:55;;;;;;;3.17;0.82;;;19.20;76.70;;;;;;4998088;28;20037;-63
2023/12/26 10:28:21;;;;;;;3.35;0.70;;;19.10;76.00;;;;;;5004006;28;20040;-62
2023/12/26 10:30:47;;;;;;;6.07;1.02;;;19.10;74.50;;;;;;5001304;28;20030;-63
2023/12/26 10:33:25;;;;;;;4.20;0.73;;;18.60;75.10;;;;;;4998873;28;20035;-62
2023/12/26 10:36:07;;;;;;;9.30;1.00;;;18.20;76.50;;;;;;4998789;28;20029;-62
2023/12/26 10:38:33;;;;;;;1.92;0.73;;;17.40;77.60;;;;;;5000885;28;20022;-62
2023/12/26 10:41:02;;;;;;;1.55;0.90;;;16.50;82.90;;;;;;5000757;28;20037;-63
2023/12/26 10:43:31;;;;;;;5.00;1.00;;;15.50;86.30;;;;;;5001061;28;20116;-63
2023/12/26 10:45:58;;;;;;;6.97;1.55;;;15.10;88.60;;;;;;4995458;28;20077;-62
2023/12/26 10:48:32;;;;;;;3.75;1.60;;;14.30;90.40;;;;;;5000475;28;20030;-62
2023/12/26 10:51:02;;;;;;;5.68;1.20;;;13.50;92.30;;;;;;4988712;28;20634;-63
2023/12/26 10:53:43;;;;;;;3.40;1.00;;;12.90;94.60;;;;;;5002767;28;20030;-62
2023/12/26 10:56:11;;;;;;;4.40;1.60;;;12.70;96.50;;;;;;5003959;28;20041;-62
2023/12/26 10:58:40;;;;;;;6.13;1.30;;;12.90;96.50;;;;;;4997074;28;20455;-61
2023/12/26 11:01:06;;;;;;;8.80;1.42;;;13.40;96.60;;;;;;5002610;28;20066;-62
2023/12/26 13:53:04;;;;;;;5.20;0.93;;;11.00;99.90;;;;;;4995350;28;20081;-61
2023/12/26 13:55:30;;;;;;;5.38;1.27;;;11.00;99.90;;;;;;4999506;28;20042;-61
2023/12/26 13:57:55;;;;;;;1.90;1.05;;;10.90;99.90;;;;;;5001226;28;20117;-61
2023/12/26 14:00:21;;;;;;;5.53;0.80;;;10.80;99.90;;;;;;5000576;28;20030;-61
2023/12/26 14:02:47;;;;;;;1.35;0.30;;;10.70;99.90;;;;;;5004597;28;20060;-61
2023/12/26 14:05:12;;;;;;;3.30;0.63;;;10.80;99.90;;;;;;4999847;28;20042;-61
2023/12/26 14:07:38;;;;;;;4.97;1.33;;;10.80;99.90;;;;;;5001991;28;20079;-61
2023/12/26 14:10:03;;;;;;;4.82;0.70;;;10.90;99.90;;;;;;4999363;28;20081;-61
2023/12/26 14:12:29;;;;;;;2.70;0.60;;;10.80;99.90;;;;;;4999096;28;20112;-61
2023/12/26 14:14:55;;;;;;;6.40;0.85;;;10.70;99.90;;;;;;5000576;28;20034;-61
2023/12/26 14:17:20;;;;;;;1.15;0.55;;;10.80;99.90;;;;;;4998070;28;20545;-61
2023/12/26 14:19:46;;;;;;;3.25;0.85;;;10.90;99.90;;;;;;5001995;28;20470;-61
2023/12/26 14:22:12;;;;;;;1.98;0.50;;;11.00;99.90;;;;;;4997975;28;20149;-61
2023/12/26 14:24:38;;;;;;;5.47;0.80;;;11.00;99.90;;;;;;5002517;28;20041;-61
2023/12/26 14:27:05;;;;;;;4.18;0.60;;;11.00;99.90;;;;;;4996650;28;20068;-62
2023/12/26 14:29:31;;;;;;;1.23;0.38;;;11.00;99.90;;;;;;5002907;28;20073;-62
2023/12/26 14:31:57;;;;;;;7.13;1.20;;;11.10;99.90;;;;;;4995587;28;20576;-61
2023/12/26 14:34:22;;;;;;;5.18;1.00;;;10.90;99.60;;;;;;5003672;28;20026;-61
2023/12/26 14:36:48;;;;;;;4.93;1.05;;;10.80;99.90;;;;;;5001005;28;20042;-62
2023/12/26 14:39:14;;;;;;;4.50;0.80;;;10.80;99.90;;;;;;4999947;28;20034;-61
2023/12/26 14:41:40;;;;;;;5.55;1.38;;;10.80;99.90;;;;;;4999254;28;20034;-61
2023/12/26 14:44:05;;;;;;;3.15;0.70;;;10.80;99.90;;;;;;4999041;28;20149;-61
2023/12/26 14:46:31;;;;;;;3.85;0.68;;;10.80;99.90;;;;;;5002648;28;20431;-61
2023/12/26 14:48:56;;;;;;;6.97;1.20;;;10.80;99.90;;;;;;4997852;28;20034;-62
2023/12/26 14:51:22;;;;;;;2.40;0.65;;;10.60;99.90;;;;;;5001099;28;20041;-62
2023/12/26 14:53:48;;;;;;;2.95;0.93;;;10.50;99.90;;;;;;4998410;28;20069;-62
2023/12/26 14:56:14;;;;;;;3.25;1.02;;;10.50;99.90;;;;;;5000545;28;20045;-62
2023/12/26 14:58:40;;;;;;;3.50;1.10;;;10.60;99.90;;;;;;4998677;28;20030;-62
2023/12/26 15:01:05;;;;;;;4.53;0.98;;;10.60;99.90;;;;;;5001082;28;20029;-62
2023/12/26 15:03:31;;;;;;;2.70;0.77;;;10.50;99.90;;;;;;4980002;28;20030;-61
2023/12/26 15:05:57;;;;;;;4.38;1.25;;;10.50;99.90;;;;;;5000723;28;20024;-61
2023/12/26 15:08:22;;;;;;;3.85;1.10;;;10.40;99.90;;;;;;4999067;28;20064;-61
2023/12/26 15:10:49;;;;;;;9.40;1.40;;;10.40;99.90;;;;;;4999051;28;20025;-61
2023/12/26 15:13:15;;;;;;;4.25;1.13;;;10.30;99.90;;;;;;5003194;28;20530;-61
2023/12/26 15:15:41;;;;;;;8.82;1.65;;;10.20;99.90;;;;;;5000408;28;20038;-60
2023/12/26 15:18:07;;;;;;;8.40;0.95;;;10.10;99.90;;;;;;4999224;28;20034;-61
2023/12/26 15:20:33;;;;;;;14.52;5.00;;;10.10;99.90;;;;;;5000680;28;20038;-61
2023/12/26 15:22:59;;;;;;;7.70;2.47;;;10.10;99.90;;;;;;4997147;28;20092;-61
2023/12/26 15:25:24;;;;;;;9.85;3.22;;;10.00;99.90;;;;;;5000687;28;20976;-59
2023/12/26 15:27:50;;;;;;;6.10;2.17;;;10.00;99.90;;;;;;4998965;28;20038;-62
2023/12/26 15:30:16;;;;;;;11.02;1.77;;;10.10;99.90;;;;;;5002904;28;20031;-61
2023/12/26 15:32:42;;;;;;;5.68;2.17;;;10.10;99.90;;;;;;4999250;28;20026;-61
2023/12/26 15:35:08;;;;;;;5.32;1.00;;;10.10;99.90;;;;;;4996197;28;20126;-61